createdAt,value
2019-02-23T00:00:48.180Z,104133.64
2019-02-23T00:10:54.135Z,104152.66
2019-02-23T00:20:59.984Z,104163.23
2019-02-23T00:31:06.002Z,104143.57
2019-02-23T00:41:11.678Z,104100.98
2019-02-23T00:51:18.095Z,104107.05
2019-02-23T01:01:23.892Z,104099.16
2019-02-23T01:11:29.700Z,104065.33
2019-02-23T01:21:35.527Z,104074.77
2019-02-23T01:31:41.511Z,104074.95
2019-02-23T01:41:47.645Z,104069.65
2019-02-23T01:51:53.772Z,104100.52
2019-02-23T02:01:59.573Z,104096.34
2019-02-23T02:12:06.745Z,104081.80
2019-02-23T02:22:13.303Z,104063.75
2019-02-23T02:32:19.183Z,104030.95
2019-02-23T02:42:25.685Z,104030.17
2019-02-23T02:52:31.362Z,104046.11
2019-02-23T03:02:37.127Z,104059.97
2019-02-23T03:12:43.968Z,104062.92
2019-02-23T03:22:50.053Z,104070.19
2019-02-23T03:32:55.669Z,104058.83
2019-02-23T03:43:01.514Z,104075.86
2019-02-23T03:53:07.263Z,104100.62
2019-02-23T04:03:12.972Z,104106.58
2019-02-23T04:13:18.914Z,104121.95
2019-02-23T04:23:24.680Z,104111.11
2019-02-23T04:33:30.397Z,104095.95
2019-02-23T04:43:36.252Z,104080.72
2019-02-23T04:53:42.798Z,104068.51
2019-02-23T05:03:48.832Z,104078.16
2019-02-23T05:13:54.717Z,104067.08
2019-02-23T05:24:00.418Z,104080.97
2019-02-23T05:34:06.279Z,104091.14
2019-02-23T05:44:12.122Z,104092.66
2019-02-23T05:54:17.752Z,104087.01
2019-02-23T06:04:23.624Z,104111.73
2019-02-23T06:14:29.233Z,104090.69
2019-02-23T06:24:35.328Z,104097.70
2019-02-23T06:34:41.242Z,104079.91
2019-02-23T06:44:47.047Z,104075.72
2019-02-23T06:54:55.392Z,104100.30
2019-02-23T07:05:04.760Z,104101.32
2019-02-23T07:15:13.597Z,104109.44
2019-02-23T07:25:19.574Z,104055.54
2019-02-23T07:35:25.482Z,104054.06
2019-02-23T07:45:31.089Z,104051.33
2019-02-23T07:55:37.247Z,104052.41
2019-02-23T08:05:43.043Z,104072.10
2019-02-23T08:15:48.849Z,104089.09
2019-02-23T08:25:54.649Z,104092.23
2019-02-23T08:36:00.717Z,104103.64
2019-02-23T08:46:06.990Z,104108.55
2019-02-23T08:56:12.968Z,104096.22
2019-02-23T09:06:18.722Z,104075.86
2019-02-23T09:16:24.426Z,104055.58
2019-02-23T09:26:30.453Z,104048.91
2019-02-23T09:36:36.231Z,104026.64
2019-02-23T09:46:42.247Z,104021.96
2019-02-23T09:56:47.944Z,104021.58
2019-02-23T10:06:54.153Z,103998.48
2019-02-23T10:16:59.888Z,104000.04
2019-02-23T10:27:05.789Z,103997.00
2019-02-23T10:37:11.615Z,104000.97
2019-02-23T10:47:17.470Z,103989.36
2019-02-23T10:57:23.197Z,103979.23
2019-02-23T11:07:28.934Z,103988.31
2019-02-23T11:17:34.698Z,104002.34
2019-02-23T11:27:40.601Z,104014.98
2019-02-23T11:37:46.481Z,104014.86
2019-02-23T11:47:52.413Z,103989.97
2019-02-23T11:57:58.336Z,103982.08
2019-02-23T12:08:04.111Z,103957.73
2019-02-23T12:18:09.803Z,103939.91
2019-02-23T12:28:15.945Z,103923.19
2019-02-23T12:38:21.947Z,103912.03
2019-02-23T12:48:27.926Z,103889.44
2019-02-23T12:58:33.851Z,103895.34
2019-02-23T13:09:17.116Z,103875.81
2019-02-23T13:19:43.682Z,103873.98
2019-02-23T13:30:13.349Z,103890.20
2019-02-23T13:40:49.912Z,103873.42
2019-02-23T13:51:04.099Z,103877.06
2019-02-23T14:01:31.445Z,103877.54
2019-02-23T14:11:43.474Z,103874.98
2019-02-23T14:22:20.560Z,103858.47
2019-02-23T14:32:38.874Z,103839.17
2019-02-23T14:43:05.751Z,103839.17
2019-02-23T14:53:34.353Z,103834.47
2019-02-23T15:03:58.605Z,103846.27
2019-02-23T15:14:40.838Z,103835.18
2019-02-23T15:25:16.517Z,103835.18
2019-02-23T15:35:47.185Z,103835.29
2019-02-23T15:45:56.013Z,103816.34
2019-02-23T15:56:01.971Z,103808.62
2019-02-23T16:06:07.953Z,103789.38
2019-02-23T16:16:13.954Z,103770.75
2019-02-23T16:26:21.444Z,103753.81
2019-02-23T16:36:27.247Z,103763.03
2019-02-23T16:46:32.909Z,103749.09
2019-02-23T16:56:38.867Z,103752.56
2019-02-23T17:06:44.641Z,103748.00
2019-02-23T17:16:50.667Z,103750.71
2019-02-23T17:26:56.267Z,103742.55
2019-02-23T17:37:02.168Z,103741.73
2019-02-23T17:47:07.753Z,103725.70
2019-02-23T17:57:13.562Z,103733.77
2019-02-23T18:07:19.455Z,103721.64
2019-02-23T18:17:27.703Z,103710.19
2019-02-23T18:27:33.672Z,103692.69
2019-02-23T18:37:39.571Z,103687.99
2019-02-23T18:47:45.339Z,103670.05
2019-02-23T18:57:51.243Z,103667.81
2019-02-23T19:07:57.068Z,103657.02
2019-02-23T19:18:03.254Z,103657.28
2019-02-23T19:28:09.165Z,103642.69
2019-02-23T19:38:14.862Z,103620.20
2019-02-23T19:48:21.292Z,103599.19
2019-02-23T19:58:27.426Z,103600.86
2019-02-23T20:08:33.105Z,103597.95
2019-02-23T20:18:39.034Z,103608.58
2019-02-23T20:28:46.414Z,103600.34
2019-02-23T20:38:52.243Z,103592.22
2019-02-23T20:48:58.190Z,103597.48
2019-02-23T20:59:04.885Z,103596.47
2019-02-23T21:09:10.712Z,103594.22
2019-02-23T21:19:18.852Z,103588.48
2019-02-23T21:29:25.313Z,103591.92
2019-02-23T21:39:33.651Z,103600.68
2019-02-23T21:49:39.320Z,103598.67
2019-02-23T21:59:46.254Z,103591.06
2019-02-23T22:09:52.158Z,103591.77
2019-02-23T22:19:58.085Z,103575.77
2019-02-23T22:30:06.042Z,103577.08
2019-02-23T22:40:11.816Z,103556.66
2019-02-23T22:50:17.577Z,103570.84
2019-02-23T23:00:25.056Z,103560.11
2019-02-23T23:10:32.459Z,103543.02
2019-02-23T23:20:38.462Z,103536.23
2019-02-23T23:30:44.220Z,103514.61
2019-02-23T23:40:50.297Z,103516.19
2019-02-23T23:50:56.410Z,103528.02
